createdAt,value
2019-03-16T00:01:28.133Z,12.33
2019-03-16T00:04:00.198Z,13.57
2019-03-16T00:06:31.643Z,13.30
2019-03-16T00:09:02.228Z,13.37
2019-03-16T00:11:32.952Z,13.00
2019-03-16T00:14:03.939Z,12.70
2019-03-16T00:16:35.268Z,11.43
2019-03-16T00:19:05.808Z,8.63
2019-03-16T00:21:36.454Z,8.30
2019-03-16T00:24:07.692Z,8.50
2019-03-16T00:26:38.429Z,7.80
2019-03-16T00:29:09.597Z,5.90
2019-03-16T00:31:40.295Z,6.30
2019-03-16T00:34:11.667Z,6.07
2019-03-16T00:36:42.176Z,5.30
2019-03-16T00:39:13.093Z,5.30
2019-03-16T00:41:43.840Z,5.33
2019-03-16T00:44:14.284Z,5.73
2019-03-16T00:46:44.789Z,7.90
2019-03-16T00:49:15.345Z,5.43
2019-03-16T00:51:46.184Z,6.57
2019-03-16T00:54:17.168Z,6.97
2019-03-16T00:56:47.966Z,7.00
2019-03-16T00:59:19.717Z,7.47
2019-03-16T01:01:50.278Z,7.20
2019-03-16T01:04:20.989Z,7.40
2019-03-16T01:06:52.172Z,6.97
2019-03-16T01:09:22.738Z,8.03
2019-03-16T01:11:53.693Z,8.13
2019-03-16T01:14:24.695Z,8.00
2019-03-16T01:16:55.771Z,8.63
2019-03-16T01:19:26.296Z,8.97
2019-03-16T01:21:57.255Z,9.37
2019-03-16T01:24:27.973Z,9.90
2019-03-16T01:26:59.148Z,9.30
2019-03-16T01:29:30.128Z,9.93
2019-03-16T01:32:00.831Z,10.20
2019-03-16T01:34:31.488Z,10.17
2019-03-16T01:37:01.755Z,11.60
2019-03-16T01:39:32.841Z,11.90
2019-03-16T01:42:03.367Z,12.67
2019-03-16T01:44:34.558Z,12.80
2019-03-16T01:47:05.090Z,12.27
2019-03-16T01:49:35.467Z,13.13
2019-03-16T01:52:06.372Z,13.13
2019-03-16T01:54:37.251Z,12.90
2019-03-16T01:57:08.893Z,12.80
2019-03-16T01:59:39.343Z,13.13
2019-03-16T02:02:10.139Z,13.63
2019-03-16T02:04:41.088Z,13.40
2019-03-16T02:07:12.015Z,12.63
2019-03-16T02:09:42.900Z,13.30
2019-03-16T02:12:13.573Z,13.83
2019-03-16T02:14:44.131Z,14.43
2019-03-16T02:17:14.972Z,14.70
2019-03-16T02:19:45.731Z,14.47
2019-03-16T02:22:16.796Z,14.53
2019-03-16T02:24:47.452Z,15.40
2019-03-16T02:27:18.116Z,14.93
2019-03-16T02:29:48.610Z,15.07
2019-03-16T02:32:19.967Z,15.50
2019-03-16T02:34:50.656Z,14.93
2019-03-16T02:37:21.490Z,15.27
2019-03-16T02:39:52.307Z,14.17
2019-03-16T02:42:22.816Z,14.77
2019-03-16T02:44:53.748Z,15.03
2019-03-16T02:47:24.561Z,14.30
2019-03-16T02:49:55.266Z,14.57
2019-03-16T02:52:25.961Z,15.73
2019-03-16T02:54:56.751Z,14.40
2019-03-16T02:57:27.325Z,14.90
2019-03-16T02:59:58.185Z,15.20
2019-03-16T03:02:29.119Z,15.83
2019-03-16T03:04:59.793Z,15.00
2019-03-16T03:07:31.007Z,15.53
2019-03-16T03:10:01.963Z,14.27
2019-03-16T03:12:33.091Z,15.47
2019-03-16T03:15:03.490Z,14.03
2019-03-16T03:17:34.538Z,13.87
2019-03-16T03:20:05.809Z,14.70
2019-03-16T03:22:36.379Z,15.40
2019-03-16T03:25:06.897Z,15.10
2019-03-16T03:27:37.412Z,15.80
2019-03-16T03:30:09.108Z,15.10
2019-03-16T03:32:40.089Z,15.03
2019-03-16T03:35:11.184Z,14.70
2019-03-16T03:37:41.575Z,15.10
2019-03-16T03:40:13.269Z,14.80
2019-03-16T03:42:43.576Z,14.67
2019-03-16T03:45:14.666Z,14.40
2019-03-16T03:47:45.826Z,14.80
2019-03-16T03:50:16.671Z,16.70
2019-03-16T03:52:48.157Z,15.40
2019-03-16T03:55:19.172Z,16.00
2019-03-16T03:57:49.971Z,14.90
2019-03-16T04:00:20.570Z,15.30
2019-03-16T04:02:51.968Z,14.93
2019-03-16T04:05:22.370Z,15.77
2019-03-16T04:07:53.759Z,16.13
2019-03-16T04:10:24.452Z,15.90
2019-03-16T04:12:55.893Z,15.73
2019-03-16T04:15:26.548Z,15.30
2019-03-16T04:17:57.276Z,15.90
2019-03-16T04:20:27.662Z,16.10
2019-03-16T04:22:58.372Z,16.43
2019-03-16T04:25:28.712Z,14.87
2019-03-16T04:27:59.946Z,15.00
2019-03-16T04:30:30.860Z,14.10
2019-03-16T04:33:04.462Z,15.00
2019-03-16T04:35:36.433Z,14.67
2019-03-16T04:38:07.085Z,14.60
2019-03-16T04:40:37.573Z,15.33
2019-03-16T04:43:09.231Z,15.03
2019-03-16T04:45:42.296Z,14.93
2019-03-16T04:48:12.988Z,15.37
2019-03-16T04:50:43.752Z,14.77
2019-03-16T04:53:14.628Z,14.80
2019-03-16T04:55:45.633Z,13.50
2019-03-16T04:58:16.072Z,13.60
2019-03-16T05:00:46.492Z,14.47
2019-03-16T05:03:17.223Z,14.30
2019-03-16T05:05:48.987Z,13.80
2019-03-16T05:08:19.657Z,14.80
2019-03-16T05:10:50.862Z,14.17
2019-03-16T05:13:21.775Z,14.70
2019-03-16T05:15:52.941Z,14.23
2019-03-16T05:18:23.495Z,15.00
2019-03-16T05:20:55.997Z,14.17
2019-03-16T05:23:26.859Z,14.60
2019-03-16T05:25:58.214Z,15.07
2019-03-16T05:28:28.940Z,14.13
2019-03-16T05:30:59.900Z,15.10
2019-03-16T05:33:31.044Z,15.17
2019-03-16T05:36:02.272Z,15.07
2019-03-16T05:38:32.775Z,14.40
2019-03-16T05:41:03.479Z,15.50
2019-03-16T05:43:34.527Z,15.80
2019-03-16T05:46:06.808Z,15.27
2019-03-16T05:48:37.579Z,14.67
2019-03-16T05:51:09.845Z,16.30
2019-03-16T05:53:40.328Z,14.90
2019-03-16T05:56:11.055Z,15.57
2019-03-16T05:58:41.547Z,13.73
2019-03-16T06:01:12.155Z,14.43
2019-03-16T06:03:45.999Z,14.97
2019-03-16T06:06:17.501Z,14.60
2019-03-16T06:08:48.270Z,14.87
2019-03-16T06:11:19.273Z,14.90
2019-03-16T06:13:49.889Z,15.13
2019-03-16T06:16:20.912Z,16.00
2019-03-16T06:18:52.932Z,14.70
2019-03-16T06:21:24.361Z,15.77
2019-03-16T06:23:55.338Z,16.10
2019-03-16T06:26:26.173Z,14.50
2019-03-16T06:28:56.795Z,14.83
2019-03-16T06:31:27.817Z,14.37
2019-03-16T06:33:58.850Z,15.70
2019-03-16T06:36:29.974Z,16.03
2019-03-16T06:39:00.715Z,15.07
2019-03-16T06:41:31.321Z,16.70
2019-03-16T06:44:01.747Z,15.50
2019-03-16T06:46:32.781Z,16.23
2019-03-16T06:49:06.145Z,15.47
2019-03-16T06:51:36.554Z,14.63
2019-03-16T06:54:06.953Z,14.43
2019-03-16T06:56:40.521Z,16.30
2019-03-16T06:59:11.576Z,16.00
2019-03-16T07:01:45.053Z,17.00
2019-03-16T07:04:15.874Z,16.40
2019-03-16T07:06:46.942Z,16.30
2019-03-16T07:09:17.901Z,16.43
2019-03-16T07:11:48.743Z,16.90
2019-03-16T07:14:19.759Z,15.60
2019-03-16T07:17:01.441Z,19.00
2019-03-16T07:19:22.880Z,17.33
2019-03-16T07:21:53.635Z,17.40
2019-03-16T07:24:24.677Z,16.87
2019-03-16T07:26:55.283Z,19.13
2019-03-16T07:29:26.137Z,17.63
2019-03-16T07:31:57.893Z,17.93
2019-03-16T07:34:28.985Z,17.10
2019-03-16T07:36:59.984Z,17.43
2019-03-16T07:39:31.347Z,17.63
2019-03-16T07:42:01.990Z,16.50
2019-03-16T07:44:32.745Z,18.10
2019-03-16T07:47:04.051Z,19.03
2019-03-16T07:49:34.650Z,16.73
2019-03-16T07:52:05.429Z,17.23
2019-03-16T07:54:36.027Z,17.37
2019-03-16T07:57:06.948Z,20.60
2019-03-16T07:59:37.995Z,18.30
2019-03-16T08:02:08.686Z,17.43
2019-03-16T08:04:39.351Z,16.43
2019-03-16T08:07:13.042Z,15.87
2019-03-16T08:09:43.552Z,16.40
2019-03-16T08:12:14.410Z,15.73
2019-03-16T08:14:45.005Z,16.43
2019-03-16T08:17:19.191Z,14.67
2019-03-16T08:19:50.221Z,15.90
2019-03-16T08:22:22.124Z,16.33
2019-03-16T08:24:52.940Z,17.20
2019-03-16T08:27:24.063Z,16.60
2019-03-16T08:29:54.558Z,17.27
2019-03-16T08:32:25.508Z,15.97
2019-03-16T08:34:56.498Z,17.33
2019-03-16T08:37:29.622Z,16.73
2019-03-16T08:39:59.493Z,16.73
2019-03-16T08:42:30.232Z,17.57
2019-03-16T08:45:00.894Z,17.50
2019-03-16T08:47:31.789Z,17.53
2019-03-16T08:50:17.295Z,18.53
2019-03-16T08:52:48.755Z,17.83
2019-03-16T08:55:19.644Z,17.00
2019-03-16T08:57:50.541Z,17.53
2019-03-16T09:00:21.769Z,16.67
2019-03-16T09:02:53.545Z,15.93
2019-03-16T09:05:24.607Z,16.70
2019-03-16T09:07:55.098Z,17.87
2019-03-16T09:10:25.704Z,16.80
2019-03-16T09:12:56.186Z,16.50
2019-03-16T09:15:26.673Z,17.10
2019-03-16T09:17:58.117Z,17.53
2019-03-16T09:20:28.575Z,16.27
2019-03-16T09:22:58.928Z,17.10
2019-03-16T09:25:29.116Z,17.07
2019-03-16T09:27:59.754Z,17.10
2019-03-16T09:33:12.637Z,16.97
2019-03-16T09:35:42.980Z,17.00
2019-03-16T09:38:13.916Z,17.13
2019-03-16T09:40:44.626Z,15.73
2019-03-16T09:43:14.990Z,16.60
2019-03-16T09:45:45.538Z,18.40
2019-03-16T09:48:16.613Z,17.30
2019-03-16T09:50:47.457Z,16.90
2019-03-16T09:53:17.828Z,17.00
2019-03-16T09:55:48.405Z,17.53
2019-03-16T09:58:30.449Z,17.13
2019-03-16T10:00:51.838Z,17.17
2019-03-16T10:03:22.624Z,17.00
2019-03-16T10:05:53.593Z,16.57
2019-03-16T10:08:24.371Z,16.90
2019-03-16T10:10:54.830Z,17.53
2019-03-16T10:13:25.220Z,17.60
2019-03-16T10:15:57.778Z,17.63
2019-03-16T10:18:27.946Z,17.93
2019-03-16T10:20:58.476Z,19.40
2019-03-16T10:23:28.946Z,17.80
2019-03-16T10:26:00.713Z,20.23
2019-03-16T10:28:42.916Z,18.30
2019-03-16T10:31:03.962Z,18.67
2019-03-16T10:33:34.410Z,17.40
2019-03-16T10:36:04.830Z,17.00
2019-03-16T10:38:38.350Z,17.73
2019-03-16T10:41:09.430Z,17.70
2019-03-16T10:43:40.078Z,17.70
2019-03-16T10:46:10.264Z,19.13
2019-03-16T10:48:40.708Z,17.87
2019-03-16T10:51:10.937Z,17.93
2019-03-16T10:53:41.506Z,17.63
2019-03-16T10:56:11.966Z,17.03
2019-03-16T10:58:42.473Z,17.10
2019-03-16T11:01:12.704Z,17.10
2019-03-16T11:03:47.966Z,17.00
2019-03-16T11:06:18.178Z,17.90
2019-03-16T11:08:48.551Z,18.87
2019-03-16T11:11:18.722Z,17.23
2019-03-16T11:13:48.793Z,17.47
2019-03-16T11:16:19.594Z,18.27
2019-03-16T11:18:50.104Z,16.73
2019-03-16T11:21:20.496Z,16.77
2019-03-16T11:23:50.937Z,16.90
2019-03-16T11:26:21.509Z,16.83
2019-03-16T11:28:51.965Z,17.53
2019-03-16T11:31:22.332Z,17.60
2019-03-16T11:33:52.551Z,17.07
2019-03-16T11:36:23.176Z,17.60
2019-03-16T11:38:53.936Z,17.47
2019-03-16T11:41:24.142Z,17.03
2019-03-16T11:43:54.999Z,17.43
2019-03-16T11:46:25.296Z,17.87
2019-03-16T11:48:55.747Z,17.77
2019-03-16T11:51:26.097Z,17.93
2019-03-16T11:53:56.720Z,16.80
2019-03-16T11:56:27.017Z,17.23
2019-03-16T11:58:57.250Z,18.30
2019-03-16T12:01:28.094Z,17.00
2019-03-16T12:03:58.834Z,15.90
2019-03-16T12:06:33.812Z,16.50
2019-03-16T12:09:05.698Z,17.10
2019-03-16T12:11:35.939Z,16.13
2019-03-16T12:14:06.494Z,17.60
2019-03-16T12:16:37.060Z,17.77
2019-03-16T12:19:07.276Z,16.73
2019-03-16T12:21:37.760Z,18.13
2019-03-16T12:24:08.353Z,16.97
2019-03-16T12:26:38.706Z,16.97
2019-03-16T12:29:08.887Z,16.50
2019-03-16T12:31:39.176Z,16.70
2019-03-16T12:34:09.925Z,17.60
2019-03-16T12:36:40.461Z,17.20
2019-03-16T12:39:14.548Z,16.63
2019-03-16T12:41:45.130Z,17.00
2019-03-16T12:44:18.148Z,16.00
2019-03-16T12:46:48.798Z,16.97
2019-03-16T12:49:19.636Z,16.90
2019-03-16T12:51:50.380Z,16.63
2019-03-16T12:54:21.903Z,16.53
2019-03-16T12:56:52.102Z,16.87
2019-03-16T12:59:22.592Z,16.70
2019-03-16T13:01:54.565Z,16.03
2019-03-16T13:04:25.256Z,15.80
2019-03-16T13:06:55.813Z,15.30
2019-03-16T13:09:27.136Z,15.60
2019-03-16T13:11:57.750Z,15.60
2019-03-16T13:14:29.162Z,15.03
2019-03-16T13:17:00.519Z,15.90
2019-03-16T13:19:31.581Z,15.23
2019-03-16T13:22:02.038Z,15.60
2019-03-16T13:24:32.887Z,16.07
2019-03-16T13:27:03.818Z,14.97
2019-03-16T13:29:35.923Z,15.03
2019-03-16T13:32:06.851Z,15.30
2019-03-16T13:34:37.321Z,15.77
2019-03-16T13:37:07.917Z,14.43
2019-03-16T13:39:38.718Z,15.87
2019-03-16T13:42:09.988Z,14.47
2019-03-16T13:44:42.070Z,14.63
2019-03-16T13:47:12.677Z,17.10
2019-03-16T13:49:43.686Z,16.03
2019-03-16T13:52:14.872Z,15.53
2019-03-16T13:54:46.076Z,15.97
2019-03-16T13:57:17.321Z,15.53
2019-03-16T13:59:48.160Z,15.70
2019-03-16T14:02:19.195Z,14.37
2019-03-16T14:04:51.098Z,15.43
2019-03-16T14:07:23.177Z,14.57
2019-03-16T14:09:54.102Z,14.70
2019-03-16T14:12:26.663Z,15.00
2019-03-16T14:14:58.252Z,14.50
2019-03-16T14:17:29.182Z,14.53
2019-03-16T14:20:00.354Z,14.53
2019-03-16T14:22:30.902Z,14.60
2019-03-16T14:25:02.833Z,14.43
2019-03-16T14:27:33.904Z,15.13
2019-03-16T14:30:05.334Z,15.03
2019-03-16T14:32:35.842Z,14.50
2019-03-16T14:35:06.954Z,14.80
2019-03-16T14:37:37.736Z,15.40
2019-03-16T14:40:12.388Z,15.80
2019-03-16T14:42:41.706Z,14.70
2019-03-16T14:45:12.946Z,15.10
2019-03-16T14:47:44.035Z,15.23
2019-03-16T14:50:17.108Z,15.43
2019-03-16T14:52:48.002Z,15.07
2019-03-16T14:55:18.537Z,14.43
2019-03-16T14:57:49.453Z,13.93
2019-03-16T15:00:20.498Z,15.20
2019-03-16T15:02:51.000Z,14.37
2019-03-16T15:05:22.056Z,14.50
2019-03-16T15:07:52.815Z,15.03
2019-03-16T15:10:23.830Z,15.17
2019-03-16T15:12:55.256Z,14.87
2019-03-16T15:15:27.220Z,15.50
2019-03-16T15:17:57.854Z,15.90
2019-03-16T15:20:28.842Z,15.97
2019-03-16T15:23:00.051Z,16.10
2019-03-16T15:25:30.746Z,16.37
2019-03-16T15:28:01.693Z,17.07
2019-03-16T15:30:32.433Z,15.93
2019-03-16T15:33:02.966Z,17.47
2019-03-16T15:35:34.026Z,17.37
2019-03-16T15:38:04.820Z,17.70
2019-03-16T15:40:38.472Z,17.77
2019-03-16T15:43:09.779Z,16.53
2019-03-16T15:45:42.934Z,16.83
2019-03-16T15:48:15.525Z,18.27
2019-03-16T15:50:48.218Z,17.47
2019-03-16T15:53:20.126Z,17.07
2019-03-16T15:55:52.459Z,16.50
2019-03-16T15:58:25.417Z,15.00
2019-03-16T16:01:03.516Z,16.43
2019-03-16T16:03:30.503Z,15.00
2019-03-16T16:06:02.995Z,15.73
2019-03-16T16:08:33.761Z,16.53
2019-03-16T16:11:05.365Z,14.77
2019-03-16T16:13:36.894Z,15.40
2019-03-16T16:16:07.919Z,14.53
2019-03-16T16:18:39.383Z,14.17
2019-03-16T16:21:11.757Z,14.57
2019-03-16T16:23:42.536Z,13.87
2019-03-16T16:26:13.347Z,14.43
2019-03-16T16:28:45.509Z,15.60
2019-03-16T16:31:16.853Z,14.57
2019-03-16T16:33:47.721Z,14.53
2019-03-16T16:36:18.530Z,15.03
2019-03-16T16:38:49.654Z,14.27
2019-03-16T16:41:20.832Z,14.50
2019-03-16T16:43:51.775Z,12.90
2019-03-16T16:46:23.230Z,13.43
2019-03-16T16:48:54.404Z,14.67
2019-03-16T16:51:25.667Z,15.00
2019-03-16T16:53:59.887Z,13.90
2019-03-16T16:56:32.661Z,15.03
2019-03-16T16:59:03.942Z,13.77
2019-03-16T17:01:35.126Z,15.50
2019-03-16T17:04:06.164Z,16.50
2019-03-16T17:06:37.750Z,14.70
2019-03-16T17:09:12.142Z,14.43
2019-03-16T17:11:42.868Z,13.60
2019-03-16T17:14:14.393Z,17.50
2019-03-16T17:16:46.851Z,16.63
2019-03-16T17:19:18.139Z,14.10
2019-03-16T17:21:49.276Z,16.73
2019-03-16T17:24:20.728Z,16.57
2019-03-16T17:26:53.274Z,16.53
2019-03-16T17:29:24.404Z,17.97
2019-03-16T17:31:55.309Z,13.70
2019-03-16T17:34:26.388Z,13.07
2019-03-16T17:36:59.435Z,15.30
2019-03-16T17:39:30.502Z,12.30
2019-03-16T17:42:01.970Z,13.33
2019-03-16T17:44:35.184Z,15.40
2019-03-16T17:47:06.378Z,13.33
2019-03-16T17:49:37.984Z,12.43
2019-03-16T17:52:08.878Z,11.87
2019-03-16T17:54:41.219Z,12.03
2019-03-16T17:57:13.751Z,12.60
2019-03-16T17:59:45.403Z,10.50
2019-03-16T18:02:16.405Z,10.97
2019-03-16T18:04:47.710Z,12.73
2019-03-16T18:07:20.224Z,10.67
2019-03-16T18:09:55.503Z,11.40
2019-03-16T18:12:37.080Z,11.07
2019-03-16T18:15:11.723Z,10.57
2019-03-16T18:17:43.511Z,13.50
2019-03-16T18:20:17.271Z,13.00
2019-03-16T18:22:47.666Z,12.97
2019-03-16T18:25:18.930Z,12.40
2019-03-16T18:27:50.034Z,12.00
2019-03-16T18:30:21.353Z,11.53
2019-03-16T18:32:52.134Z,15.00
2019-03-16T18:35:23.188Z,14.27
2019-03-16T18:37:54.249Z,14.37
2019-03-16T18:40:26.527Z,13.73
2019-03-16T18:42:58.963Z,16.90
2019-03-16T18:45:30.273Z,14.53
2019-03-16T18:48:01.787Z,12.87
2019-03-16T18:50:32.750Z,17.30
2019-03-16T18:53:03.809Z,14.27
2019-03-16T18:55:35.155Z,18.43
2019-03-16T18:58:06.412Z,15.73
2019-03-16T19:00:37.614Z,15.63
2019-03-16T19:03:11.522Z,16.60
2019-03-16T19:05:41.403Z,19.63
2019-03-16T19:08:12.215Z,16.20
2019-03-16T19:10:43.242Z,14.77
2019-03-16T19:13:14.242Z,20.10
2019-03-16T19:15:45.317Z,15.03
2019-03-16T19:18:16.184Z,14.73
2019-03-16T19:20:47.695Z,16.33
2019-03-16T19:23:18.396Z,16.77
2019-03-16T19:25:50.613Z,16.57
2019-03-16T19:28:21.664Z,16.07
2019-03-16T19:30:52.771Z,17.07
2019-03-16T19:33:25.118Z,19.57
2019-03-16T19:35:58.431Z,18.10
2019-03-16T19:38:31.626Z,20.13
2019-03-16T19:41:02.809Z,18.70
2019-03-16T19:43:33.538Z,23.10
2019-03-16T19:46:04.976Z,22.10
2019-03-16T19:48:36.938Z,21.40
2019-03-16T19:51:08.911Z,20.30
2019-03-16T19:53:40.517Z,25.47
2019-03-16T19:56:11.005Z,28.17
2019-03-16T19:58:42.457Z,23.17
2019-03-16T20:01:13.260Z,22.57
2019-03-16T20:03:43.977Z,22.37
2019-03-16T20:06:25.220Z,27.03
2019-03-16T20:08:48.017Z,23.60
2019-03-16T20:11:18.655Z,26.53
2019-03-16T20:13:49.808Z,25.17
2019-03-16T20:16:20.371Z,31.73
2019-03-16T20:18:52.277Z,26.07
2019-03-16T20:21:23.296Z,27.27
2019-03-16T20:23:54.651Z,29.90
2019-03-16T20:26:25.395Z,25.63
2019-03-16T20:28:56.107Z,23.27
2019-03-16T20:31:27.421Z,29.53
2019-03-16T20:34:00.135Z,25.17
2019-03-16T20:36:31.259Z,25.40
2019-03-16T20:39:02.979Z,25.57
2019-03-16T20:41:36.519Z,24.37
2019-03-16T20:44:07.246Z,22.90
2019-03-16T20:46:38.616Z,26.83
2019-03-16T20:49:10.847Z,28.93
2019-03-16T20:51:41.894Z,22.23
2019-03-16T20:54:13.025Z,25.50
2019-03-16T20:56:45.091Z,25.43
2019-03-16T20:59:16.216Z,23.50
2019-03-16T21:01:47.128Z,22.17
2019-03-16T21:04:17.655Z,24.83
2019-03-16T21:06:48.986Z,24.33
2019-03-16T21:09:19.811Z,28.67
2019-03-16T21:11:51.251Z,23.23
2019-03-16T21:14:22.256Z,24.80
2019-03-16T21:16:53.817Z,25.40
2019-03-16T21:19:25.527Z,27.50
2019-03-16T21:21:56.632Z,25.13
2019-03-16T21:24:28.952Z,24.57
2019-03-16T21:27:01.520Z,21.97
2019-03-16T21:29:33.259Z,19.57
2019-03-16T21:32:04.382Z,21.90
2019-03-16T21:34:35.654Z,17.80
2019-03-16T21:37:07.404Z,18.17
2019-03-16T21:39:39.342Z,16.17
2019-03-16T21:42:10.583Z,19.03
2019-03-16T21:44:41.416Z,17.27
2019-03-16T21:47:12.189Z,18.17
2019-03-16T21:49:45.378Z,21.03
2019-03-16T21:52:17.387Z,16.40
2019-03-16T21:54:48.675Z,17.80
2019-03-16T21:57:20.002Z,19.33
2019-03-16T21:59:50.868Z,17.77
2019-03-16T22:02:22.482Z,17.43
2019-03-16T22:04:53.584Z,17.47
2019-03-16T22:07:24.543Z,18.27
2019-03-16T22:09:55.661Z,18.53
2019-03-16T22:12:26.149Z,18.83
2019-03-16T22:14:56.695Z,16.17
2019-03-16T22:17:28.246Z,18.00
2019-03-16T22:19:59.228Z,20.17
2019-03-16T22:22:30.461Z,17.97
2019-03-16T22:25:01.581Z,19.87
2019-03-16T22:27:32.373Z,20.33
2019-03-16T22:30:03.018Z,19.37
2019-03-16T22:32:33.745Z,20.00
2019-03-16T22:35:04.875Z,17.60
2019-03-16T22:37:35.818Z,18.93
2019-03-16T22:40:06.988Z,19.67
2019-03-16T22:42:37.491Z,18.40
2019-03-16T22:45:08.624Z,18.57
2019-03-16T22:47:39.634Z,18.40
2019-03-16T22:50:10.769Z,16.50
2019-03-16T22:52:41.420Z,20.07
2019-03-16T22:55:12.087Z,17.60
2019-03-16T22:57:42.771Z,19.77
2019-03-16T23:00:14.166Z,18.17
2019-03-16T23:02:44.603Z,19.67
2019-03-16T23:05:15.357Z,21.07
2019-03-16T23:07:46.040Z,20.07
2019-03-16T23:10:16.678Z,19.40
2019-03-16T23:12:47.457Z,20.80
2019-03-16T23:15:17.807Z,18.97
2019-03-16T23:17:48.300Z,18.90
2019-03-16T23:20:18.696Z,20.60
2019-03-16T23:22:49.671Z,20.30
2019-03-16T23:25:20.554Z,20.80
2019-03-16T23:27:51.263Z,20.53
2019-03-16T23:30:21.697Z,22.30
2019-03-16T23:32:52.297Z,20.67
2019-03-16T23:35:23.106Z,20.73
2019-03-16T23:37:53.535Z,21.57
2019-03-16T23:40:24.484Z,23.17
2019-03-16T23:42:55.845Z,23.00
2019-03-16T23:45:26.926Z,23.33
2019-03-16T23:47:57.553Z,24.93
2019-03-16T23:50:28.531Z,22.70
2019-03-16T23:53:00.071Z,22.73
2019-03-16T23:55:30.957Z,23.17
2019-03-16T23:58:01.914Z,23.00
